Hugo, OK

2:36 AM CDT on September 03, 2014 (GMT -0500)
Stamper Municipal | Change Station
CLOSE
Current Station
Airport
Location: Hugo,
Elevation: 571 ft
Nearby Weather Stations

Elev 571 ft 34.03 °N, 95.54 °W | Updated 21 minutes ago

Clear
Clear
74 °F
Feels Like 74 °F
N
5
Wind Variable Wind from East

Today
High -- | Low -- °F
--% Chance of Precip.
Yesterday
High -- | Low -- °F
Precip. -- in
6:57 AM 7:45 PM
First Quarter, 59% visible
Pressure 29.96 in
Visibility 10.0 miles
Clouds Clear
Dew Point 70 °F
Humidity 87%
Rainfall 0.00 in
Snow Depth Not available.
UV 0 out of 12
Pollen 11.00 out of 12
Air Quality Not available.
Flu Activity Not available.
METAR KHHW 030715Z AUTO 10004KT 10SM CLR 23/21 A2996 RMK AO2 T02340212

More Conditions Fewer Conditions

Pressure 29.96 in
Visibility 10.0 miles
Clouds Clear
Dew Point 70 °F
Humidity 87%
Rainfall 0.00 in
Snow Depth Not available.
UV 0 out of 12
Pollen 11.00 out of 12
Air Quality Not available.
Flu Activity Not available.
METAR KHHW 030715Z AUTO 10004KT 10SM CLR 23/21 A2996 RMK AO2 T02340212

More Conditions Fewer Conditions

10-Day Weather Forecast

Almanac

Astronomy

Sep. 03, 2014 Rise Set
Actual Time 6:57 AM CDT 7:45 PM CDT
Civil Twilight 6:31 AM CDT 8:10 PM CDT
Nautical Twilight 6:01 AM CDT 8:40 PM CDT
Astronomical Twilight 5:30 AM CDT 9:11 PM CDT
Moon 3:19 PM CDT 1:00 AM CDT
Length of Visible Light 13h 38m
Length of Day
12h 48m
Tomorrow will be 2m 2s shorter.
First Quarter, 59% of the Moon is Illuminated
Today
First Quarter
Sep 8
Full
Sep 15
Last Quarter
Sep 24
New
Oct 1
First Quarter

Today's Extremes

State Highs State Lows

Community

WunderPhotos

Upload Photos

1,749,891 photos uploaded!

Nearby

Snow Depth

Station Depth Elevation
No new snow has been reported.

Earthquake Activity

City Distance Mag. Time & Date
Jones, Oklahoma 148 miles 3.1 1:49 PM CDT
2014-08-31
Minimum magnitude displayed is 2.5.

Coastal Water Temperatures

Place Temperature
No Stations Reporting

Nearby Weather Stations